11:44
Airports
History
Links
Donate
Help keep this website running!
PayPal
Bitcoin
This page is community maintained. The information is intended for PC simulator navigation or reference.
Always use approved charts for navigation.
EGWU
RAF NortholtEdited 07-Mar-2012
RAF Northolt (EGWU)
Ruislip, England, United Kingdom
(C)
Lat/Lng:51° 33' 9.71" N / 0° 25' 10.53" W
51.552696 / -0.419593
Elevation:124'ft / 38mMSL
ID / ICAO:EGWU
Runways:1
Longest:(07-25) 1,689.8m / 5,544ft Asphalt
Controlled:Yes
Beacon:Yellow
Distance To
Airport ID:
Airport Radio Frequencies
Northolt Information: 125.12
Tower: 120.67
Approach: 126.45
Departure: 129.12
Nearby VORs <50NM
Nearby NDBs
METARUpdated 08-20-17 10:50 GMT
Altimeter: 30.24
Visibility: 6.2 statute miles
Wind: 9 knots (260°)
Temp: 18°c 64°f
Humidity: 63.6%

METAR: EGWU 201050Z 26009KT 9999 SCT045 BKN120 18/11 Q1024 NOSIG

(Powered by phpweather)
Runway 07 / 25
Dimensions:1689.8 x 46m 5544' x 151'ft
Surface:Asphalt
Edge Lights:Medium intensity
Runway 07 [A]Runway 25 [B]
Heading:069°TH 249°TH
Lat:
Lng:
51° 33' 0.21"N
0° 25' 51.67"W
51° 33' 19.2"N
0° 24' 29.4"W
User Notes and Comments
Google Map
Nearby Airports
(C) Denham 4.7 NM
EGLD WNW 301°
(C) London Heathrow 5.9 NM
EGLL (WX) SSW 197°
(C) Elstree 8.2 NM
EGTR NNE 29°
(C) Leavesden 9.5 NM
EGTI N
4 Ascot Heliport [H] 13.8 NM
EGLT SW 228°
(U) Brooklands 14.2 NM
EGLB S 188°
(C) Fairoaks 15.4 NM
EGTF SSW 202°
VFR Chart
Flight Planning at SkyVector.com